sensor_id;sensor_type;location;lat;lon;timestamp;P1;durP1;ratioP1;P2;durP2;ratioP2
32327;SDS011;18806;51.558;5.100;2022-08-03T07:58:22;13.23;;;2.85;;
32327;SDS011;18806;51.558;5.100;2022-08-03T08:00:49;13.98;;;2.97;;
32327;SDS011;18806;51.558;5.100;2022-08-03T08:03:18;13.77;;;3.00;;
32327;SDS011;18806;51.558;5.100;2022-08-03T08:05:47;13.73;;;2.60;;
32327;SDS011;18806;51.558;5.100;2022-08-03T08:08:14;12.13;;;2.70;;
32327;SDS011;18806;51.558;5.100;2022-08-03T08:10:41;12.23;;;3.00;;
32327;SDS011;18806;51.558;5.100;2022-08-03T08:13:23;11.27;;;2.80;;
32327;SDS011;18806;51.558;5.100;2022-08-03T08:15:53;10.32;;;2.80;;
32327;SDS011;18806;51.558;5.100;2022-08-03T08:18:21;11.55;;;3.20;;
32327;SDS011;18806;51.558;5.100;2022-08-03T08:20:52;15.43;;;3.20;;
32327;SDS011;18806;51.558;5.100;2022-08-03T08:23:21;10.60;;;2.70;;
32327;SDS011;18806;51.558;5.100;2022-08-03T08:26:08;10.30;;;3.08;;
32327;SDS011;18806;51.558;5.100;2022-08-03T08:28:36;14.57;;;2.83;;
32327;SDS011;18806;51.558;5.100;2022-08-03T08:31:03;14.02;;;3.13;;
32327;SDS011;18806;51.558;5.100;2022-08-03T08:33:33;13.13;;;2.67;;
32327;SDS011;18806;51.558;5.100;2022-08-03T08:36:21;13.10;;;2.70;;
32327;SDS011;18806;51.558;5.100;2022-08-03T08:38:49;11.65;;;2.90;;
32327;SDS011;18806;51.558;5.100;2022-08-03T08:41:16;13.05;;;2.70;;
32327;SDS011;18806;51.558;5.100;2022-08-03T08:43:43;11.38;;;2.88;;
32327;SDS011;18806;51.558;5.100;2022-08-03T08:46:11;12.85;;;3.10;;
32327;SDS011;18806;51.558;5.100;2022-08-03T08:48:49;11.75;;;2.80;;
32327;SDS011;18806;51.558;5.100;2022-08-03T08:51:18;14.50;;;2.88;;
32327;SDS011;18806;51.558;5.100;2022-08-03T08:53:48;13.20;;;2.78;;
32327;SDS011;18806;51.558;5.100;2022-08-03T08:56:17;12.88;;;3.03;;
32327;SDS011;18806;51.558;5.100;2022-08-03T08:58:48;12.10;;;3.00;;
32327;SDS011;18806;51.558;5.100;2022-08-03T09:01:17;13.43;;;2.58;;
32327;SDS011;18806;51.558;5.100;2022-08-03T09:03:45;12.23;;;2.75;;
32327;SDS011;18806;51.558;5.100;2022-08-03T09:06:13;16.00;;;2.70;;
32327;SDS011;18806;51.558;5.100;2022-08-03T09:08:49;12.68;;;2.38;;
32327;SDS011;18806;51.558;5.100;2022-08-03T09:11:20;10.80;;;2.28;;
32327;SDS011;18806;51.558;5.100;2022-08-03T09:14:10;11.98;;;2.20;;
32327;SDS011;18806;51.558;5.100;2022-08-03T09:16:58;9.13;;;1.80;;
32327;SDS011;18806;51.558;5.100;2022-08-03T09:29:39;12.73;;;2.20;;
32327;SDS011;18806;51.558;5.100;2022-08-03T09:32:11;9.85;;;1.98;;
32327;SDS011;18806;51.558;5.100;2022-08-03T09:34:40;11.50;;;2.47;;
32327;SDS011;18806;51.558;5.100;2022-08-03T09:37:15;10.85;;;2.10;;
32327;SDS011;18806;51.558;5.100;2022-08-03T09:39:42;12.27;;;2.30;;
32327;SDS011;18806;51.558;5.100;2022-08-03T09:42:12;11.50;;;2.30;;
32327;SDS011;18806;51.558;5.100;2022-08-03T09:44:44;12.23;;;2.72;;
32327;SDS011;18806;51.558;5.100;2022-08-03T09:47:12;11.13;;;2.58;;
32327;SDS011;18806;51.558;5.100;2022-08-03T09:49:55;13.07;;;2.65;;
32327;SDS011;18806;51.558;5.100;2022-08-03T09:52:22;10.97;;;2.10;;
32327;SDS011;18806;51.558;5.100;2022-08-03T09:55:15;14.27;;;2.33;;
32327;SDS011;18806;51.558;5.100;2022-08-03T09:58:24;11.40;;;2.20;;
32327;SDS011;18806;51.558;5.100;2022-08-03T10:08:32;9.80;;;2.40;;
32327;SDS011;18806;51.558;5.100;2022-08-03T10:11:11;10.05;;;2.33;;
32327;SDS011;18806;51.558;5.100;2022-08-03T10:13:42;12.95;;;2.58;;
32327;SDS011;18806;51.558;5.100;2022-08-03T10:16:09;8.43;;;2.03;;
32327;SDS011;18806;51.558;5.100;2022-08-03T10:18:50;14.95;;;3.08;;
32327;SDS011;18806;51.558;5.100;2022-08-03T10:38:47;15.50;;;2.15;;
32327;SDS011;18806;51.558;5.100;2022-08-03T10:41:24;12.82;;;2.67;;
32327;SDS011;18806;51.558;5.100;2022-08-03T10:43:57;13.30;;;3.00;;
32327;SDS011;18806;51.558;5.100;2022-08-03T10:46:33;15.10;;;2.83;;
32327;SDS011;18806;51.558;5.100;2022-08-03T10:49:33;12.20;;;2.60;;
32327;SDS011;18806;51.558;5.100;2022-08-03T10:52:01;14.48;;;2.72;;
32327;SDS011;18806;51.558;5.100;2022-08-03T10:54:48;12.20;;;2.60;;
32327;SDS011;18806;51.558;5.100;2022-08-03T10:57:42;11.18;;;2.78;;
32327;SDS011;18806;51.558;5.100;2022-08-03T11:00:12;12.23;;;2.30;;
32327;SDS011;18806;51.558;5.100;2022-08-03T11:05:30;9.37;;;2.33;;
32327;SDS011;18806;51.558;5.100;2022-08-03T11:08:19;15.07;;;2.78;;
32327;SDS011;18806;51.558;5.100;2022-08-03T11:10:48;14.48;;;2.63;;
32327;SDS011;18806;51.558;5.100;2022-08-03T11:13:16;12.23;;;2.63;;
32327;SDS011;18806;51.558;5.100;2022-08-03T11:15:44;12.07;;;2.20;;
32327;SDS011;18806;51.558;5.100;2022-08-03T11:18:12;9.90;;;2.35;;
32327;SDS011;18806;51.558;5.100;2022-08-03T11:20:52;14.90;;;2.70;;
32327;SDS011;18806;51.558;5.100;2022-08-03T11:23:39;13.02;;;2.75;;
32327;SDS011;18806;51.558;5.100;2022-08-03T11:26:27;10.35;;;2.08;;
32327;SDS011;18806;51.558;5.100;2022-08-03T11:31:49;9.68;;;2.45;;
32327;SDS011;18806;51.558;5.100;2022-08-03T11:44:41;12.25;;;2.28;;
32327;SDS011;18806;51.558;5.100;2022-08-03T11:47:26;11.30;;;2.38;;
32327;SDS011;18806;51.558;5.100;2022-08-03T16:52:03;7.57;;;1.85;;
32327;SDS011;18806;51.558;5.100;2022-08-03T16:54:41;3.70;;;0.90;;
32327;SDS011;18806;51.558;5.100;2022-08-03T16:57:19;2.08;;;0.90;;
32327;SDS011;18806;51.558;5.100;2022-08-03T17:00:07;3.80;;;1.50;;
32327;SDS011;18806;51.558;5.100;2022-08-03T17:02:58;3.95;;;1.10;;
32327;SDS011;18806;51.558;5.100;2022-08-03T17:05:29;3.28;;;1.05;;
32327;SDS011;18806;51.558;5.100;2022-08-03T17:08:13;5.13;;;1.25;;
32327;SDS011;18806;51.558;5.100;2022-08-03T17:10:41;4.90;;;1.23;;
32327;SDS011;18806;51.558;5.100;2022-08-03T17:13:10;4.80;;;1.40;;
32327;SDS011;18806;51.558;5.100;2022-08-03T17:20:54;5.13;;;1.08;;
32327;SDS011;18806;51.558;5.100;2022-08-03T17:26:10;2.55;;;1.08;;
32327;SDS011;18806;51.558;5.100;2022-08-03T17:28:49;3.58;;;1.00;;
32327;SDS011;18806;51.558;5.100;2022-08-03T17:31:23;2.05;;;0.93;;
32327;SDS011;18806;51.558;5.100;2022-08-03T17:33:58;4.18;;;0.98;;
32327;SDS011;18806;51.558;5.100;2022-08-03T17:36:25;4.95;;;1.60;;
32327;SDS011;18806;51.558;5.100;2022-08-03T20:54:48;7.40;;;2.08;;
32327;SDS011;18806;51.558;5.100;2022-08-03T20:57:16;11.93;;;2.13;;
32327;SDS011;18806;51.558;5.100;2022-08-03T20:59:47;8.75;;;2.50;;
32327;SDS011;18806;51.558;5.100;2022-08-03T21:02:17;5.28;;;2.08;;
32327;SDS011;18806;51.558;5.100;2022-08-03T21:04:55;7.22;;;2.50;;
32327;SDS011;18806;51.558;5.100;2022-08-03T21:07:23;6.13;;;2.10;;
32327;SDS011;18806;51.558;5.100;2022-08-03T21:10:12;5.60;;;2.25;;
32327;SDS011;18806;51.558;5.100;2022-08-03T21:15:40;8.43;;;2.30;;
32327;SDS011;18806;51.558;5.100;2022-08-03T21:18:41;7.47;;;2.38;;
32327;SDS011;18806;51.558;5.100;2022-08-03T21:21:09;3.38;;;1.73;;
32327;SDS011;18806;51.558;5.100;2022-08-03T21:23:38;3.25;;;1.70;;
32327;SDS011;18806;51.558;5.100;2022-08-03T21:26:15;7.75;;;1.90;;
32327;SDS011;18806;51.558;5.100;2022-08-03T21:28:47;7.00;;;2.53;;
32327;SDS011;18806;51.558;5.100;2022-08-03T21:31:15;7.83;;;2.57;;
32327;SDS011;18806;51.558;5.100;2022-08-03T21:33:51;4.97;;;2.30;;
32327;SDS011;18806;51.558;5.100;2022-08-03T21:36:21;7.82;;;2.90;;
32327;SDS011;18806;51.558;5.100;2022-08-03T21:38:48;7.03;;;2.50;;
32327;SDS011;18806;51.558;5.100;2022-08-03T21:41:22;6.57;;;2.45;;
32327;SDS011;18806;51.558;5.100;2022-08-03T21:43:49;3.92;;;1.90;;
32327;SDS011;18806;51.558;5.100;2022-08-03T21:46:19;7.78;;;2.30;;
